sensor_id;sensor_type;location;lat;lon;timestamp;temperature;humidity
3876;DHT22;1953;51.222;6.624;2023-05-16T00:01:23;12.10;1.00
3876;DHT22;1953;51.222;6.624;2023-05-16T00:06:07;12.20;1.00
3876;DHT22;1953;51.222;6.624;2023-05-16T00:11:50;12.10;1.00
3876;DHT22;1953;51.222;6.624;2023-05-16T00:16:32;12.10;1.00
3876;DHT22;1953;51.222;6.624;2023-05-16T00:21:17;11.80;1.00
3876;DHT22;1953;51.222;6.624;2023-05-16T00:25:59;12.00;1.00
3876;DHT22;1953;51.222;6.624;2023-05-16T00:30:43;11.90;1.00
3876;DHT22;1953;51.222;6.624;2023-05-16T00:35:26;11.80;1.00
3876;DHT22;1953;51.222;6.624;2023-05-16T00:40:09;11.60;1.00
3876;DHT22;1953;51.222;6.624;2023-05-16T00:44:52;11.50;1.00
3876;DHT22;1953;51.222;6.624;2023-05-16T00:49:36;11.50;1.00
3876;DHT22;1953;51.222;6.624;2023-05-16T00:54:21;11.40;1.00
3876;DHT22;1953;51.222;6.624;2023-05-16T00:59:06;11.40;1.00
3876;DHT22;1953;51.222;6.624;2023-05-16T01:03:48;11.40;1.00
3876;DHT22;1953;51.222;6.624;2023-05-16T01:08:32;11.50;1.00
3876;DHT22;1953;51.222;6.624;2023-05-16T01:13:21;11.40;1.00
3876;DHT22;1953;51.222;6.624;2023-05-16T01:18:08;11.50;1.00
3876;DHT22;1953;51.222;6.624;2023-05-16T01:23:16;11.40;1.00
3876;DHT22;1953;51.222;6.624;2023-05-16T01:28:03;11.20;1.00
3876;DHT22;1953;51.222;6.624;2023-05-16T01:32:46;11.20;1.00
3876;DHT22;1953;51.222;6.624;2023-05-16T01:37:32;11.20;1.00
3876;DHT22;1953;51.222;6.624;2023-05-16T01:42:18;11.10;1.00
3876;DHT22;1953;51.222;6.624;2023-05-16T01:47:08;11.10;1.00
3876;DHT22;1953;51.222;6.624;2023-05-16T01:51:59;11.10;1.00
3876;DHT22;1953;51.222;6.624;2023-05-16T01:56:45;11.10;1.00
3876;DHT22;1953;51.222;6.624;2023-05-16T02:01:31;11.10;1.00
3876;DHT22;1953;51.222;6.624;2023-05-16T02:06:16;11.00;1.00
3876;DHT22;1953;51.222;6.624;2023-05-16T02:10:58;10.90;1.00
3876;DHT22;1953;51.222;6.624;2023-05-16T02:15:41;10.90;1.00
3876;DHT22;1953;51.222;6.624;2023-05-16T02:20:23;10.90;1.00
3876;DHT22;1953;51.222;6.624;2023-05-16T02:25:08;10.90;1.00
3876;DHT22;1953;51.222;6.624;2023-05-16T02:29:51;10.90;1.00
3876;DHT22;1953;51.222;6.624;2023-05-16T02:34:33;10.90;1.00
3876;DHT22;1953;51.222;6.624;2023-05-16T02:39:16;10.90;1.00
3876;DHT22;1953;51.222;6.624;2023-05-16T02:44:00;10.90;1.00
3876;DHT22;1953;51.222;6.624;2023-05-16T02:48:42;10.90;1.00
3876;DHT22;1953;51.222;6.624;2023-05-16T02:53:25;10.80;1.00
3876;DHT22;1953;51.222;6.624;2023-05-16T02:58:07;10.90;1.00
3876;DHT22;1953;51.222;6.624;2023-05-16T03:02:51;10.80;1.00
3876;DHT22;1953;51.222;6.624;2023-05-16T03:07:34;9.30;1.00
3876;DHT22;1953;51.222;6.624;2023-05-16T03:12:17;10.70;1.00
3876;DHT22;1953;51.222;6.624;2023-05-16T03:17:00;10.80;1.00
3876;DHT22;1953;51.222;6.624;2023-05-16T03:21:43;10.60;1.00
3876;DHT22;1953;51.222;6.624;2023-05-16T03:26:26;10.50;1.00
3876;DHT22;1953;51.222;6.624;2023-05-16T03:31:08;10.40;1.00
3876;DHT22;1953;51.222;6.624;2023-05-16T03:35:51;10.30;1.00
3876;DHT22;1953;51.222;6.624;2023-05-16T03:40:35;10.20;1.00
3876;DHT22;1953;51.222;6.624;2023-05-16T03:45:17;10.10;1.00
3876;DHT22;1953;51.222;6.624;2023-05-16T03:50:00;10.00;1.00
3876;DHT22;1953;51.222;6.624;2023-05-16T03:54:43;10.00;1.00
3876;DHT22;1953;51.222;6.624;2023-05-16T03:59:28;9.90;1.00
3876;DHT22;1953;51.222;6.624;2023-05-16T04:04:10;9.80;1.00
3876;DHT22;1953;51.222;6.624;2023-05-16T04:08:53;9.80;1.00
3876;DHT22;1953;51.222;6.624;2023-05-16T04:13:35;9.80;1.00
3876;DHT22;1953;51.222;6.624;2023-05-16T04:18:19;9.70;1.00
3876;DHT22;1953;51.222;6.624;2023-05-16T04:23:02;9.60;1.00
3876;DHT22;1953;51.222;6.624;2023-05-16T04:27:44;9.60;1.00
3876;DHT22;1953;51.222;6.624;2023-05-16T04:32:27;9.60;1.00
3876;DHT22;1953;51.222;6.624;2023-05-16T04:37:11;9.50;1.00
3876;DHT22;1953;51.222;6.624;2023-05-16T04:41:54;9.50;1.00
3876;DHT22;1953;51.222;6.624;2023-05-16T04:46:39;9.60;1.00
3876;DHT22;1953;51.222;6.624;2023-05-16T04:51:22;9.60;1.00
3876;DHT22;1953;51.222;6.624;2023-05-16T04:56:06;9.60;1.00
3876;DHT22;1953;51.222;6.624;2023-05-16T05:00:50;9.60;1.00
3876;DHT22;1953;51.222;6.624;2023-05-16T05:05:32;9.50;1.00
3876;DHT22;1953;51.222;6.624;2023-05-16T05:10:15;9.60;1.00
3876;DHT22;1953;51.222;6.624;2023-05-16T05:14:59;9.60;1.00
3876;DHT22;1953;51.222;6.624;2023-05-16T05:19:42;9.60;1.00
3876;DHT22;1953;51.222;6.624;2023-05-16T05:24:24;9.70;1.00
3876;DHT22;1953;51.222;6.624;2023-05-16T05:29:07;9.70;1.00
3876;DHT22;1953;51.222;6.624;2023-05-16T05:33:51;9.70;1.00
3876;DHT22;1953;51.222;6.624;2023-05-16T05:38:33;9.80;1.00
3876;DHT22;1953;51.222;6.624;2023-05-16T05:43:16;9.80;1.00
3876;DHT22;1953;51.222;6.624;2023-05-16T05:47:59;9.90;1.00
3876;DHT22;1953;51.222;6.624;2023-05-16T05:52:42;10.10;1.00
3876;DHT22;1953;51.222;6.624;2023-05-16T05:57:25;10.10;1.00
3876;DHT22;1953;51.222;6.624;2023-05-16T06:02:08;10.10;1.00
3876;DHT22;1953;51.222;6.624;2023-05-16T06:06:51;10.20;1.00
3876;DHT22;1953;51.222;6.624;2023-05-16T06:11:34;10.20;1.00
3876;DHT22;1953;51.222;6.624;2023-05-16T06:16:17;10.40;1.00
3876;DHT22;1953;51.222;6.624;2023-05-16T06:21:00;10.50;1.00
3876;DHT22;1953;51.222;6.624;2023-05-16T06:25:42;10.50;1.00
3876;DHT22;1953;51.222;6.624;2023-05-16T06:30:26;10.80;1.00
3876;DHT22;1953;51.222;6.624;2023-05-16T06:35:08;10.90;1.00
3876;DHT22;1953;51.222;6.624;2023-05-16T06:39:51;11.10;1.00
3876;DHT22;1953;51.222;6.624;2023-05-16T06:44:34;11.20;1.00
3876;DHT22;1953;51.222;6.624;2023-05-16T06:49:17;11.30;1.00
3876;DHT22;1953;51.222;6.624;2023-05-16T06:54:00;11.40;1.00
3876;DHT22;1953;51.222;6.624;2023-05-16T06:58:42;11.50;1.00
3876;DHT22;1953;51.222;6.624;2023-05-16T07:03:25;11.90;1.00
3876;DHT22;1953;51.222;6.624;2023-05-16T07:08:09;12.00;1.00
3876;DHT22;1953;51.222;6.624;2023-05-16T07:12:52;12.50;1.00
3876;DHT22;1953;51.222;6.624;2023-05-16T07:17:35;12.20;1.00
3876;DHT22;1953;51.222;6.624;2023-05-16T07:22:18;12.30;1.00
3876;DHT22;1953;51.222;6.624;2023-05-16T07:27:02;12.30;1.00
3876;DHT22;1953;51.222;6.624;2023-05-16T07:31:44;12.40;1.00
3876;DHT22;1953;51.222;6.624;2023-05-16T07:36:27;12.40;1.00
3876;DHT22;1953;51.222;6.624;2023-05-16T07:41:09;12.40;1.00
3876;DHT22;1953;51.222;6.624;2023-05-16T07:45:54;12.40;1.00
3876;DHT22;1953;51.222;6.624;2023-05-16T07:50:36;12.40;1.00
3876;DHT22;1953;51.222;6.624;2023-05-16T07:55:19;12.50;1.00
3876;DHT22;1953;51.222;6.624;2023-05-16T08:00:02;12.60;1.00
3876;DHT22;1953;51.222;6.624;2023-05-16T08:04:46;12.60;1.00
3876;DHT22;1953;51.222;6.624;2023-05-16T08:09:30;12.70;1.00
3876;DHT22;1953;51.222;6.624;2023-05-16T08:14:12;12.70;1.00
3876;DHT22;1953;51.222;6.624;2023-05-16T08:18:55;12.90;1.00
3876;DHT22;1953;51.222;6.624;2023-05-16T08:23:39;13.10;1.00
3876;DHT22;1953;51.222;6.624;2023-05-16T08:28:21;13.20;1.00
3876;DHT22;1953;51.222;6.624;2023-05-16T08:33:05;13.30;1.00
3876;DHT22;1953;51.222;6.624;2023-05-16T08:37:47;13.30;1.00
3876;DHT22;1953;51.222;6.624;2023-05-16T08:42:32;13.10;1.00
3876;DHT22;1953;51.222;6.624;2023-05-16T08:47:18;13.10;1.00
3876;DHT22;1953;51.222;6.624;2023-05-16T08:52:03;13.10;1.00
3876;DHT22;1953;51.222;6.624;2023-05-16T08:56:48;13.30;1.00
3876;DHT22;1953;51.222;6.624;2023-05-16T09:01:33;13.50;1.00
3876;DHT22;1953;51.222;6.624;2023-05-16T09:06:16;13.70;1.00
3876;DHT22;1953;51.222;6.624;2023-05-16T09:10:59;14.00;1.00
3876;DHT22;1953;51.222;6.624;2023-05-16T09:15:41;14.30;1.00
3876;DHT22;1953;51.222;6.624;2023-05-16T09:20:27;14.60;1.00
3876;DHT22;1953;51.222;6.624;2023-05-16T09:25:15;14.70;1.00
3876;DHT22;1953;51.222;6.624;2023-05-16T09:29:58;14.80;1.00
3876;DHT22;1953;51.222;6.624;2023-05-16T09:34:45;14.50;1.00
3876;DHT22;1953;51.222;6.624;2023-05-16T09:39:30;14.30;1.00
3876;DHT22;1953;51.222;6.624;2023-05-16T09:44:12;14.30;1.00
3876;DHT22;1953;51.222;6.624;2023-05-16T09:48:55;14.40;1.00
3876;DHT22;1953;51.222;6.624;2023-05-16T09:53:38;14.70;1.00
3876;DHT22;1953;51.222;6.624;2023-05-16T09:58:27;14.80;1.00
3876;DHT22;1953;51.222;6.624;2023-05-16T10:03:11;15.90;1.00
3876;DHT22;1953;51.222;6.624;2023-05-16T10:07:55;15.20;1.00
3876;DHT22;1953;51.222;6.624;2023-05-16T10:12:38;15.60;1.00
3876;DHT22;1953;51.222;6.624;2023-05-16T10:17:24;15.60;1.00
3876;DHT22;1953;51.222;6.624;2023-05-16T10:22:09;15.60;1.00
3876;DHT22;1953;51.222;6.624;2023-05-16T10:26:53;15.50;1.00
3876;DHT22;1953;51.222;6.624;2023-05-16T10:31:36;15.30;1.00
3876;DHT22;1953;51.222;6.624;2023-05-16T10:36:20;15.30;1.00
3876;DHT22;1953;51.222;6.624;2023-05-16T10:41:04;15.50;1.00
3876;DHT22;1953;51.222;6.624;2023-05-16T10:45:53;15.50;1.00
3876;DHT22;1953;51.222;6.624;2023-05-16T10:50:37;15.50;1.00
3876;DHT22;1953;51.222;6.624;2023-05-16T10:55:21;15.40;1.00
3876;DHT22;1953;51.222;6.624;2023-05-16T11:00:06;15.20;1.00
3876;DHT22;1953;51.222;6.624;2023-05-16T11:04:51;15.30;1.00
3876;DHT22;1953;51.222;6.624;2023-05-16T11:09:34;15.20;1.00
3876;DHT22;1953;51.222;6.624;2023-05-16T11:14:22;15.30;1.00
3876;DHT22;1953;51.222;6.624;2023-05-16T11:19:05;15.00;1.00
3876;DHT22;1953;51.222;6.624;2023-05-16T11:24:27;15.10;1.00
3876;DHT22;1953;51.222;6.624;2023-05-16T11:29:11;15.40;1.00
3876;DHT22;1953;51.222;6.624;2023-05-16T11:33:55;15.50;1.00
3876;DHT22;1953;51.222;6.624;2023-05-16T11:38:38;15.80;1.00
3876;DHT22;1953;51.222;6.624;2023-05-16T11:43:23;15.80;1.00
3876;DHT22;1953;51.222;6.624;2023-05-16T11:48:06;15.50;1.00
3876;DHT22;1953;51.222;6.624;2023-05-16T11:52:52;15.30;1.00
3876;DHT22;1953;51.222;6.624;2023-05-16T11:57:37;15.50;1.00
3876;DHT22;1953;51.222;6.624;2023-05-16T12:02:22;15.80;1.00
3876;DHT22;1953;51.222;6.624;2023-05-16T12:07:04;15.80;1.00
3876;DHT22;1953;51.222;6.624;2023-05-16T12:12:51;15.90;1.00
3876;DHT22;1953;51.222;6.624;2023-05-16T12:17:35;16.10;1.00
3876;DHT22;1953;51.222;6.624;2023-05-16T12:22:19;16.00;1.00
3876;DHT22;1953;51.222;6.624;2023-05-16T12:27:01;16.70;1.00
3876;DHT22;1953;51.222;6.624;2023-05-16T12:31:45;17.30;1.00
3876;DHT22;1953;51.222;6.624;2023-05-16T12:36:31;18.10;1.00
3876;DHT22;1953;51.222;6.624;2023-05-16T12:41:17;19.00;1.00
3876;DHT22;1953;51.222;6.624;2023-05-16T12:46:00;20.00;1.00
3876;DHT22;1953;51.222;6.624;2023-05-16T12:50:44;20.60;1.00
3876;DHT22;1953;51.222;6.624;2023-05-16T12:55:27;21.00;1.00
3876;DHT22;1953;51.222;6.624;2023-05-16T13:00:11;20.10;1.00
3876;DHT22;1953;51.222;6.624;2023-05-16T13:04:53;21.50;1.00
3876;DHT22;1953;51.222;6.624;2023-05-16T13:09:37;22.30;1.00
3876;DHT22;1953;51.222;6.624;2023-05-16T13:14:21;22.70;1.00
3876;DHT22;1953;51.222;6.624;2023-05-16T13:19:04;22.80;1.00
3876;DHT22;1953;51.222;6.624;2023-05-16T13:23:46;23.30;1.00
3876;DHT22;1953;51.222;6.624;2023-05-16T13:28:30;23.20;1.00
3876;DHT22;1953;51.222;6.624;2023-05-16T13:33:13;22.30;1.00
3876;DHT22;1953;51.222;6.624;2023-05-16T13:37:55;21.30;1.00
3876;DHT22;1953;51.222;6.624;2023-05-16T13:42:38;21.40;1.00
3876;DHT22;1953;51.222;6.624;2023-05-16T13:47:22;22.70;1.00
3876;DHT22;1953;51.222;6.624;2023-05-16T13:52:05;22.60;1.00
3876;DHT22;1953;51.222;6.624;2023-05-16T13:56:48;20.90;1.00
3876;DHT22;1953;51.222;6.624;2023-05-16T14:01:31;19.80;1.00
3876;DHT22;1953;51.222;6.624;2023-05-16T14:06:14;20.70;1.00
3876;DHT22;1953;51.222;6.624;2023-05-16T14:10:57;21.10;1.00
3876;DHT22;1953;51.222;6.624;2023-05-16T14:15:39;20.70;1.00
3876;DHT22;1953;51.222;6.624;2023-05-16T14:20:22;20.30;1.00
3876;DHT22;1953;51.222;6.624;2023-05-16T14:25:06;19.40;1.00
3876;DHT22;1953;51.222;6.624;2023-05-16T14:29:49;18.90;1.00
3876;DHT22;1953;51.222;6.624;2023-05-16T14:34:32;19.00;1.00
3876;DHT22;1953;51.222;6.624;2023-05-16T14:39:15;20.00;1.00
3876;DHT22;1953;51.222;6.624;2023-05-16T14:43:58;19.20;1.00
3876;DHT22;1953;51.222;6.624;2023-05-16T14:48:41;18.90;1.00
3876;DHT22;1953;51.222;6.624;2023-05-16T14:53:24;18.90;1.00
3876;DHT22;1953;51.222;6.624;2023-05-16T14:58:06;18.30;1.00
3876;DHT22;1953;51.222;6.624;2023-05-16T15:02:51;18.00;1.00
3876;DHT22;1953;51.222;6.624;2023-05-16T15:07:33;17.80;1.00
3876;DHT22;1953;51.222;6.624;2023-05-16T15:12:16;18.40;1.00
3876;DHT22;1953;51.222;6.624;2023-05-16T15:16:58;18.20;1.00
3876;DHT22;1953;51.222;6.624;2023-05-16T15:21:42;17.90;1.00
3876;DHT22;1953;51.222;6.624;2023-05-16T15:26:24;17.50;1.00
3876;DHT22;1953;51.222;6.624;2023-05-16T15:31:07;17.40;1.00
3876;DHT22;1953;51.222;6.624;2023-05-16T15:35:49;17.20;1.00
3876;DHT22;1953;51.222;6.624;2023-05-16T15:40:34;17.20;1.00
3876;DHT22;1953;51.222;6.624;2023-05-16T15:45:16;17.00;1.00
3876;DHT22;1953;51.222;6.624;2023-05-16T15:49:59;17.00;1.00
3876;DHT22;1953;51.222;6.624;2023-05-16T15:54:42;16.70;1.00
3876;DHT22;1953;51.222;6.624;2023-05-16T15:59:25;16.60;1.00
3876;DHT22;1953;51.222;6.624;2023-05-16T16:04:08;16.60;1.00
3876;DHT22;1953;51.222;6.624;2023-05-16T16:08:50;15.80;1.00
3876;DHT22;1953;51.222;6.624;2023-05-16T16:13:33;16.50;1.00
3876;DHT22;1953;51.222;6.624;2023-05-16T16:18:17;16.50;1.00
3876;DHT22;1953;51.222;6.624;2023-05-16T16:22:59;16.40;1.00
3876;DHT22;1953;51.222;6.624;2023-05-16T16:27:41;16.40;1.00
3876;DHT22;1953;51.222;6.624;2023-05-16T16:32:25;16.40;1.00
3876;DHT22;1953;51.222;6.624;2023-05-16T16:37:08;16.50;1.00
3876;DHT22;1953;51.222;6.624;2023-05-16T16:41:51;16.40;1.00
3876;DHT22;1953;51.222;6.624;2023-05-16T16:46:34;16.70;1.00
3876;DHT22;1953;51.222;6.624;2023-05-16T16:51:16;16.50;1.00
3876;DHT22;1953;51.222;6.624;2023-05-16T16:56:00;16.50;1.00
3876;DHT22;1953;51.222;6.624;2023-05-16T17:00:42;16.30;1.00
3876;DHT22;1953;51.222;6.624;2023-05-16T17:05:25;16.10;1.00
3876;DHT22;1953;51.222;6.624;2023-05-16T17:10:08;16.10;1.00
3876;DHT22;1953;51.222;6.624;2023-05-16T17:14:52;15.90;1.00
3876;DHT22;1953;51.222;6.624;2023-05-16T17:19:36;15.80;1.00
3876;DHT22;1953;51.222;6.624;2023-05-16T17:24:18;15.60;1.00
3876;DHT22;1953;51.222;6.624;2023-05-16T17:29:01;15.40;1.00
3876;DHT22;1953;51.222;6.624;2023-05-16T17:33:46;15.30;1.00
3876;DHT22;1953;51.222;6.624;2023-05-16T17:38:28;15.20;1.00
3876;DHT22;1953;51.222;6.624;2023-05-16T17:43:11;15.20;1.00
3876;DHT22;1953;51.222;6.624;2023-05-16T17:47:53;14.90;1.00
3876;DHT22;1953;51.222;6.624;2023-05-16T17:52:37;14.80;1.00
3876;DHT22;1953;51.222;6.624;2023-05-16T17:57:20;14.90;1.00
3876;DHT22;1953;51.222;6.624;2023-05-16T18:02:04;14.90;1.00
3876;DHT22;1953;51.222;6.624;2023-05-16T18:06:49;14.80;1.00
3876;DHT22;1953;51.222;6.624;2023-05-16T18:11:35;14.70;1.00
3876;DHT22;1953;51.222;6.624;2023-05-16T18:16:18;14.70;1.00
3876;DHT22;1953;51.222;6.624;2023-05-16T18:21:00;14.60;1.00
3876;DHT22;1953;51.222;6.624;2023-05-16T18:25:43;14.70;1.00
3876;DHT22;1953;51.222;6.624;2023-05-16T18:30:27;14.60;1.00
3876;DHT22;1953;51.222;6.624;2023-05-16T18:35:09;14.60;1.00
3876;DHT22;1953;51.222;6.624;2023-05-16T18:39:53;14.60;1.00
3876;DHT22;1953;51.222;6.624;2023-05-16T18:44:35;14.60;1.00
3876;DHT22;1953;51.222;6.624;2023-05-16T18:49:19;14.50;1.00
3876;DHT22;1953;51.222;6.624;2023-05-16T18:54:02;14.40;1.00
3876;DHT22;1953;51.222;6.624;2023-05-16T18:58:44;14.50;1.00
3876;DHT22;1953;51.222;6.624;2023-05-16T19:03:26;14.50;1.00
3876;DHT22;1953;51.222;6.624;2023-05-16T19:08:10;14.50;1.00
3876;DHT22;1953;51.222;6.624;2023-05-16T19:12:53;14.40;1.00
3876;DHT22;1953;51.222;6.624;2023-05-16T19:17:35;14.40;1.00
3876;DHT22;1953;51.222;6.624;2023-05-16T19:22:18;14.40;1.00
3876;DHT22;1953;51.222;6.624;2023-05-16T19:27:03;14.40;1.00
3876;DHT22;1953;51.222;6.624;2023-05-16T19:31:45;14.40;1.00
3876;DHT22;1953;51.222;6.624;2023-05-16T19:36:27;14.30;1.00
3876;DHT22;1953;51.222;6.624;2023-05-16T19:41:10;14.30;1.00
3876;DHT22;1953;51.222;6.624;2023-05-16T19:45:54;14.30;1.00
3876;DHT22;1953;51.222;6.624;2023-05-16T19:50:36;14.20;1.00
3876;DHT22;1953;51.222;6.624;2023-05-16T19:55:19;14.20;1.00
3876;DHT22;1953;51.222;6.624;2023-05-16T20:00:02;14.20;1.00
3876;DHT22;1953;51.222;6.624;2023-05-16T20:04:47;14.20;1.00
3876;DHT22;1953;51.222;6.624;2023-05-16T20:09:30;14.10;1.00
3876;DHT22;1953;51.222;6.624;2023-05-16T20:14:12;14.10;1.00
3876;DHT22;1953;51.222;6.624;2023-05-16T20:18:54;14.10;1.00
3876;DHT22;1953;51.222;6.624;2023-05-16T20:23:38;14.10;1.00
3876;DHT22;1953;51.222;6.624;2023-05-16T20:28:21;14.10;1.00
3876;DHT22;1953;51.222;6.624;2023-05-16T20:33:03;14.10;1.00
3876;DHT22;1953;51.222;6.624;2023-05-16T20:37:46;14.00;1.00
3876;DHT22;1953;51.222;6.624;2023-05-16T20:42:29;13.90;1.00
3876;DHT22;1953;51.222;6.624;2023-05-16T20:47:12;13.90;1.00
3876;DHT22;1953;51.222;6.624;2023-05-16T20:51:54;14.00;1.00
3876;DHT22;1953;51.222;6.624;2023-05-16T20:56:37;13.90;1.00
3876;DHT22;1953;51.222;6.624;2023-05-16T21:01:20;13.70;1.00
3876;DHT22;1953;51.222;6.624;2023-05-16T21:06:03;13.60;1.00
3876;DHT22;1953;51.222;6.624;2023-05-16T21:10:46;13.50;1.00
3876;DHT22;1953;51.222;6.624;2023-05-16T21:15:28;13.60;1.00
3876;DHT22;1953;51.222;6.624;2023-05-16T21:20:12;13.50;1.00
3876;DHT22;1953;51.222;6.624;2023-05-16T21:24:55;13.30;1.00
3876;DHT22;1953;51.222;6.624;2023-05-16T21:29:37;13.30;1.00
3876;DHT22;1953;51.222;6.624;2023-05-16T21:34:20;13.20;1.00
3876;DHT22;1953;51.222;6.624;2023-05-16T21:39:04;13.30;1.00
3876;DHT22;1953;51.222;6.624;2023-05-16T21:43:46;13.30;1.00
3876;DHT22;1953;51.222;6.624;2023-05-16T21:48:29;13.10;1.00
3876;DHT22;1953;51.222;6.624;2023-05-16T21:53:11;13.10;1.00
3876;DHT22;1953;51.222;6.624;2023-05-16T21:57:55;12.90;1.00
3876;DHT22;1953;51.222;6.624;2023-05-16T22:02:37;12.90;1.00
3876;DHT22;1953;51.222;6.624;2023-05-16T22:07:20;12.80;1.00
3876;DHT22;1953;51.222;6.624;2023-05-16T22:12:04;12.60;1.00
3876;DHT22;1953;51.222;6.624;2023-05-16T22:16:48;12.60;1.00
3876;DHT22;1953;51.222;6.624;2023-05-16T22:21:30;12.40;1.00
3876;DHT22;1953;51.222;6.624;2023-05-16T22:26:13;12.40;1.00
3876;DHT22;1953;51.222;6.624;2023-05-16T22:30:55;12.30;1.00
3876;DHT22;1953;51.222;6.624;2023-05-16T22:35:39;12.20;1.00
3876;DHT22;1953;51.222;6.624;2023-05-16T22:40:21;12.10;1.00
3876;DHT22;1953;51.222;6.624;2023-05-16T22:45:05;12.00;1.00
3876;DHT22;1953;51.222;6.624;2023-05-16T22:49:47;12.00;1.00
3876;DHT22;1953;51.222;6.624;2023-05-16T22:54:31;12.00;1.00
3876;DHT22;1953;51.222;6.624;2023-05-16T22:59:14;12.00;1.00
3876;DHT22;1953;51.222;6.624;2023-05-16T23:03:56;12.10;1.00
3876;DHT22;1953;51.222;6.624;2023-05-16T23:08:38;12.10;1.00
3876;DHT22;1953;51.222;6.624;2023-05-16T23:13:24;12.10;1.00
3876;DHT22;1953;51.222;6.624;2023-05-16T23:18:06;12.00;1.00
3876;DHT22;1953;51.222;6.624;2023-05-16T23:22:48;11.80;1.00
3876;DHT22;1953;51.222;6.624;2023-05-16T23:27:31;11.80;1.00
3876;DHT22;1953;51.222;6.624;2023-05-16T23:32:15;11.70;1.00
3876;DHT22;1953;51.222;6.624;2023-05-16T23:36:57;11.60;1.00
3876;DHT22;1953;51.222;6.624;2023-05-16T23:41:40;11.70;1.00
3876;DHT22;1953;51.222;6.624;2023-05-16T23:46:22;11.20;1.00
3876;DHT22;1953;51.222;6.624;2023-05-16T23:51:06;11.40;1.00
3876;DHT22;1953;51.222;6.624;2023-05-16T23:55:48;11.40;1.00
